createdAt,value
2018-10-03T00:00:40.730Z,100625.12
2018-10-03T00:03:08.157Z,100617.13
2018-10-03T00:05:35.402Z,100626.87
2018-10-03T00:08:02.637Z,100632.75
2018-10-03T00:10:30.010Z,100626.56
2018-10-03T00:12:57.289Z,100618.61
2018-10-03T00:15:24.983Z,100622.13
2018-10-03T00:17:52.784Z,100625.56
2018-10-03T00:20:20.150Z,100629.92
2018-10-03T00:22:47.404Z,100638.33
2018-10-03T00:25:14.690Z,100641.03
2018-10-03T00:27:41.996Z,100641.83
2018-10-03T00:30:09.438Z,100637.82
2018-10-03T00:32:36.848Z,100640.16
2018-10-03T00:35:04.062Z,100649.08
2018-10-03T00:37:31.322Z,100639.36
2018-10-03T00:39:59.145Z,100652.52
2018-10-03T00:42:26.706Z,100646.36
2018-10-03T00:44:54.225Z,100643.85
2018-10-03T00:47:22.118Z,100643.79
2018-10-03T00:49:49.470Z,100644.88
2018-10-03T00:52:16.736Z,100646.38
2018-10-03T00:54:50.528Z,100638.49
2018-10-03T00:57:28.964Z,100630.41
2018-10-03T01:00:04.769Z,100640.86
2018-10-03T01:02:40.186Z,100642.42
2018-10-03T01:05:11.695Z,100643.34
2018-10-03T01:07:40.990Z,100637.37
2018-10-03T01:10:08.369Z,100638.74
2018-10-03T01:12:35.568Z,100640.45
2018-10-03T01:15:02.750Z,100645.25
2018-10-03T01:17:30.025Z,100637.25
2018-10-03T01:19:57.239Z,100646.84
2018-10-03T01:22:24.414Z,100645.25
2018-10-03T01:24:51.607Z,100637.45
2018-10-03T01:27:18.833Z,100644.71
2018-10-03T01:29:46.022Z,100642.95
2018-10-03T01:32:13.213Z,100644.23
2018-10-03T01:34:40.522Z,100639.23
2018-10-03T01:37:07.705Z,100649.69
2018-10-03T01:39:34.907Z,100642.19
2018-10-03T01:42:02.156Z,100645.42
2018-10-03T01:44:29.373Z,100635.42
2018-10-03T01:46:56.605Z,100649.44
2018-10-03T01:49:23.857Z,100647.31
2018-10-03T01:51:51.029Z,100661.27
2018-10-03T01:54:18.206Z,100654.08
2018-10-03T01:56:45.457Z,100667.09
2018-10-03T01:59:12.855Z,100671.99
2018-10-03T02:01:40.162Z,100665.72
2018-10-03T02:04:08.340Z,100678.95
2018-10-03T02:06:35.698Z,100686.00
2018-10-03T02:09:04.827Z,100678.56
2018-10-03T02:11:32.226Z,100679.39
2018-10-03T02:13:59.630Z,100689.31
2018-10-03T02:16:28.368Z,100685.34
2018-10-03T02:19:00.414Z,100686.45
2018-10-03T02:21:28.098Z,100684.25
2018-10-03T02:23:55.370Z,100683.73
2018-10-03T02:26:23.826Z,100688.03
2018-10-03T02:28:52.168Z,100677.79
2018-10-03T02:31:19.529Z,100677.48
2018-10-03T02:33:47.217Z,100668.02
2018-10-03T02:36:14.529Z,100680.47
2018-10-03T02:38:42.109Z,100665.59
2018-10-03T02:41:09.619Z,100680.88
2018-10-03T02:43:37.675Z,100679.15
2018-10-03T02:46:05.267Z,100669.53
2018-10-03T02:48:32.627Z,100676.94
2018-10-03T02:50:59.858Z,100679.45
2018-10-03T02:53:27.092Z,100684.98
2018-10-03T02:55:54.435Z,100678.36
2018-10-03T02:58:21.705Z,100686.66
2018-10-03T03:00:49.493Z,100694.45
2018-10-03T03:03:16.927Z,100689.14
2018-10-03T03:05:44.178Z,100695.59
2018-10-03T03:08:11.463Z,100700.05
2018-10-03T03:10:38.934Z,100705.52
2018-10-03T03:13:06.696Z,100710.41
2018-10-03T03:15:33.919Z,100699.56
2018-10-03T03:18:01.254Z,100692.31
2018-10-03T03:20:28.629Z,100691.09
2018-10-03T03:23:07.942Z,100687.28
2018-10-03T03:25:35.052Z,100693.16
2018-10-03T03:28:02.295Z,100679.88
2018-10-03T03:30:29.512Z,100703.11
2018-10-03T03:32:56.610Z,100678.25
2018-10-03T03:35:23.721Z,100707.55
2018-10-03T03:37:50.918Z,100704.55
2018-10-03T03:40:18.012Z,100701.62
2018-10-03T03:42:45.095Z,100711.83
2018-10-03T03:45:12.232Z,100718.00
2018-10-03T03:47:39.334Z,100699.39
2018-10-03T03:50:06.481Z,100695.36
2018-10-03T03:52:33.696Z,100711.86
2018-10-03T03:55:00.800Z,100705.85
2018-10-03T03:57:27.888Z,100706.72
2018-10-03T03:59:55.033Z,100706.80
2018-10-03T04:02:22.136Z,100703.44
2018-10-03T04:04:49.278Z,100695.03
2018-10-03T04:07:16.423Z,100717.11
2018-10-03T04:09:43.512Z,100714.48
2018-10-03T04:12:10.612Z,100701.82
2018-10-03T04:14:37.749Z,100712.33
2018-10-03T04:17:04.853Z,100710.07
2018-10-03T04:19:31.983Z,100703.77
2018-10-03T04:21:59.126Z,100714.26
2018-10-03T04:24:26.228Z,100726.01
2018-10-03T04:26:53.313Z,100721.17
2018-10-03T04:29:20.448Z,100713.84
2018-10-03T04:31:47.537Z,100736.19
2018-10-03T04:34:14.634Z,100723.02
2018-10-03T04:36:41.855Z,100729.53
2018-10-03T04:39:08.966Z,100730.48
2018-10-03T04:41:36.468Z,100737.33
2018-10-03T04:44:03.684Z,100726.77
2018-10-03T04:46:30.819Z,100729.30
2018-10-03T04:48:57.970Z,100732.94
2018-10-03T04:51:25.081Z,100728.30
2018-10-03T04:53:52.276Z,100740.16
2018-10-03T04:56:19.373Z,100737.92
2018-10-03T04:58:46.524Z,100743.18
2018-10-03T05:01:13.619Z,100734.31
2018-10-03T05:03:41.402Z,100747.94
2018-10-03T05:06:08.887Z,100750.22
2018-10-03T05:08:36.468Z,100749.78
2018-10-03T05:11:03.575Z,100753.44
2018-10-03T05:13:30.891Z,100756.06
2018-10-03T05:15:57.994Z,100764.23
2018-10-03T05:18:25.124Z,100776.94
2018-10-03T05:20:52.300Z,100760.94
2018-10-03T05:23:19.396Z,100766.67
2018-10-03T05:25:46.556Z,100775.20
2018-10-03T05:28:13.693Z,100784.86
2018-10-03T05:30:40.781Z,100776.80
2018-10-03T05:33:07.916Z,100777.57
2018-10-03T05:35:35.109Z,100773.16
2018-10-03T05:38:02.324Z,100774.47
2018-10-03T05:40:29.679Z,100785.26
2018-10-03T05:42:56.855Z,100780.95
2018-10-03T05:45:23.977Z,100787.11
2018-10-03T05:47:51.314Z,100779.04
2018-10-03T05:50:19.176Z,100791.72
2018-10-03T05:52:46.400Z,100790.70
2018-10-03T05:55:14.150Z,100798.63
2018-10-03T05:57:41.461Z,100807.44
2018-10-03T06:00:08.698Z,100806.19
2018-10-03T06:02:35.949Z,100814.14
2018-10-03T06:05:03.132Z,100819.01
2018-10-03T06:07:30.336Z,100810.36
2018-10-03T06:09:57.452Z,100823.05
2018-10-03T06:12:24.625Z,100819.09
2018-10-03T06:14:51.896Z,100830.79
2018-10-03T06:17:21.164Z,100825.92
2018-10-03T06:19:48.423Z,100826.72
2018-10-03T06:22:15.704Z,100832.13
2018-10-03T06:24:42.830Z,100842.27
2018-10-03T06:27:10.107Z,100832.25
2018-10-03T06:29:37.280Z,100836.72
2018-10-03T06:32:05.160Z,100843.05
2018-10-03T06:34:32.363Z,100838.88
2018-10-03T06:36:59.477Z,100845.03
2018-10-03T06:39:26.648Z,100852.30
2018-10-03T06:41:53.868Z,100850.20
2018-10-03T06:44:21.001Z,100849.64
2018-10-03T06:46:48.163Z,100857.69
2018-10-03T06:49:15.319Z,100867.05
2018-10-03T06:51:42.512Z,100879.81
2018-10-03T06:54:09.608Z,100869.11
2018-10-03T06:56:36.753Z,100881.59
2018-10-03T06:59:03.879Z,100873.95
2018-10-03T07:01:31.061Z,100883.31
2018-10-03T07:03:58.403Z,100874.58
2018-10-03T07:06:25.657Z,100876.80
2018-10-03T07:08:52.834Z,100888.80
2018-10-03T07:11:20.061Z,100883.23
2018-10-03T07:13:47.200Z,100904.54
2018-10-03T07:16:14.341Z,100896.70
2018-10-03T07:18:41.567Z,100920.64
2018-10-03T07:21:08.881Z,100919.95
2018-10-03T07:23:36.014Z,100915.13
2018-10-03T07:26:03.230Z,100919.70
2018-10-03T07:28:30.368Z,100929.19
2018-10-03T07:30:57.533Z,100919.02
2018-10-03T07:33:24.696Z,100915.34
2018-10-03T07:35:51.820Z,100912.28
2018-10-03T07:38:19.075Z,100934.10
2018-10-03T07:40:46.360Z,100938.44
2018-10-03T07:43:13.585Z,100939.37
2018-10-03T07:45:40.988Z,100935.95
2018-10-03T07:48:08.203Z,100937.18
2018-10-03T07:50:35.337Z,100951.26
2018-10-03T07:53:02.598Z,100941.34
2018-10-03T07:55:29.770Z,100961.61
2018-10-03T07:57:56.946Z,100959.70
2018-10-03T08:00:26.732Z,100963.51
2018-10-03T08:02:55.306Z,100966.94
2018-10-03T08:05:22.502Z,100979.93
2018-10-03T08:07:49.752Z,100969.48
2018-10-03T08:10:16.915Z,100975.84
2018-10-03T08:12:44.315Z,100977.98
2018-10-03T08:15:11.540Z,100978.95
2018-10-03T08:17:39.180Z,100976.37
2018-10-03T08:20:06.662Z,100976.80
2018-10-03T08:22:33.863Z,100998.21
2018-10-03T08:25:01.137Z,100997.81
2018-10-03T08:27:29.124Z,100989.34
2018-10-03T08:29:56.236Z,100971.30
2018-10-03T08:32:23.558Z,101002.59
2018-10-03T08:34:50.749Z,101003.80
2018-10-03T08:37:17.880Z,101008.06
2018-10-03T08:39:45.044Z,101011.64
2018-10-03T08:42:13.317Z,101017.20
2018-10-03T08:44:40.416Z,101012.09
2018-10-03T08:47:07.588Z,101020.53
2018-10-03T08:49:35.032Z,101026.30
2018-10-03T08:52:02.290Z,101014.97
2018-10-03T08:54:29.528Z,101022.06
2018-10-03T08:56:56.694Z,101051.61
2018-10-03T08:59:23.849Z,101037.59
2018-10-03T09:01:51.288Z,101039.51
2018-10-03T09:04:18.727Z,101049.09
2018-10-03T09:06:45.936Z,101045.62
2018-10-03T09:09:13.176Z,101044.20
2018-10-03T09:11:40.840Z,101072.65
2018-10-03T09:14:08.024Z,101081.22
2018-10-03T09:16:35.352Z,101071.91
2018-10-03T09:19:02.634Z,101081.53
2018-10-03T09:21:29.980Z,101068.36
2018-10-03T09:23:57.201Z,101080.54
2018-10-03T09:26:24.362Z,101095.48
2018-10-03T09:28:51.568Z,101106.47
2018-10-03T09:31:18.843Z,101096.64
2018-10-03T09:33:46.135Z,101113.30
2018-10-03T09:36:13.588Z,101110.36
2018-10-03T09:38:40.913Z,101111.99
2018-10-03T09:41:08.109Z,101116.63
2018-10-03T09:43:35.522Z,101126.70
2018-10-03T09:46:02.740Z,101148.50
2018-10-03T09:48:31.568Z,101133.05
2018-10-03T09:50:58.889Z,101127.17
2018-10-03T09:53:26.372Z,101135.77
2018-10-03T09:55:53.609Z,101148.75
2018-10-03T09:58:20.740Z,101156.47
2018-10-03T10:00:53.883Z,101158.17
2018-10-03T10:03:20.984Z,101159.30
2018-10-03T10:05:48.111Z,101159.30
2018-10-03T10:08:15.398Z,101173.03
2018-10-03T10:10:42.507Z,101179.79
2018-10-03T10:13:09.614Z,101176.24
2018-10-03T10:15:36.792Z,101173.09
2018-10-03T10:18:03.940Z,101184.50
2018-10-03T10:20:31.063Z,101166.38
2018-10-03T10:22:58.303Z,101191.38
2018-10-03T10:25:25.495Z,101200.64
2018-10-03T10:27:52.814Z,101192.44
2018-10-03T10:30:20.321Z,101196.17
2018-10-03T10:32:48.366Z,101205.48
2018-10-03T10:35:15.437Z,101194.22
2018-10-03T10:37:42.702Z,101207.72
2018-10-03T10:40:09.875Z,101194.55
2018-10-03T10:42:36.944Z,101203.66
2018-10-03T10:45:04.468Z,101191.91
2018-10-03T10:47:31.582Z,101200.09
2018-10-03T10:49:58.665Z,101211.53
2018-10-03T10:52:26.083Z,101229.48
2018-10-03T10:54:53.240Z,101223.72
2018-10-03T10:57:20.347Z,101220.45
2018-10-03T10:59:47.542Z,101233.42
2018-10-03T11:02:14.692Z,101212.80
2018-10-03T11:04:41.828Z,101216.69
2018-10-03T11:07:08.955Z,101218.21
2018-10-03T11:09:36.211Z,101220.37
2018-10-03T11:12:03.660Z,101208.23
2018-10-03T11:14:31.470Z,101239.00
2018-10-03T11:16:58.706Z,101231.30
2018-10-03T11:19:25.801Z,101231.33
2018-10-03T11:21:53.364Z,101240.31
2018-10-03T11:24:20.551Z,101252.83
2018-10-03T11:26:47.720Z,101258.22
2018-10-03T11:29:14.932Z,101270.46
2018-10-03T11:31:42.053Z,101277.45
2018-10-03T11:34:09.250Z,101270.31
2018-10-03T11:36:36.424Z,101267.64
2018-10-03T11:39:05.267Z,101261.61
2018-10-03T11:41:32.469Z,101275.72
2018-10-03T11:43:59.733Z,101287.73
2018-10-03T11:46:26.839Z,101293.41
2018-10-03T11:48:54.105Z,101299.05
2018-10-03T11:51:21.357Z,101303.73
2018-10-03T11:53:48.521Z,101309.03
2018-10-03T11:56:15.803Z,101310.30
2018-10-03T11:58:43.215Z,101312.72
2018-10-03T12:01:14.154Z,101312.48
2018-10-03T12:03:46.342Z,101302.56
2018-10-03T12:06:16.072Z,101308.34
2018-10-03T12:08:43.301Z,101298.78
2018-10-03T12:11:13.883Z,101299.02
2018-10-03T12:13:46.275Z,101298.22
2018-10-03T12:16:14.052Z,101300.34
2018-10-03T12:18:41.283Z,101304.37
2018-10-03T12:21:08.442Z,101313.12
2018-10-03T12:23:35.702Z,101317.55
2018-10-03T12:26:03.332Z,101329.22
2018-10-03T12:28:31.014Z,101332.57
2018-10-03T12:30:58.218Z,101317.59
2018-10-03T12:33:25.432Z,101344.57
2018-10-03T12:35:52.536Z,101342.44
2018-10-03T12:38:19.822Z,101343.05
2018-10-03T12:40:46.988Z,101351.13
2018-10-03T12:43:14.246Z,101348.69
2018-10-03T12:45:41.512Z,101344.92
2018-10-03T12:48:08.636Z,101352.30
2018-10-03T12:50:35.837Z,101361.25
2018-10-03T12:53:03.028Z,101353.99
2018-10-03T12:55:30.660Z,101360.89
2018-10-03T12:57:57.953Z,101350.98
2018-10-03T13:00:29.352Z,101363.42
2018-10-03T13:02:57.153Z,101358.14
2018-10-03T13:05:24.248Z,101365.94
2018-10-03T13:07:51.389Z,101371.88
2018-10-03T13:10:18.644Z,101369.23
2018-10-03T13:12:46.229Z,101369.45
2018-10-03T13:15:13.473Z,101377.50
2018-10-03T13:17:40.648Z,101378.00
2018-10-03T13:20:07.941Z,101381.38
2018-10-03T13:22:35.156Z,101390.80
2018-10-03T13:25:02.365Z,101389.85
2018-10-03T13:27:29.500Z,101391.14
2018-10-03T13:29:56.877Z,101405.28
2018-10-03T13:32:23.991Z,101400.96
2018-10-03T13:34:51.100Z,101405.77
2018-10-03T13:37:18.350Z,101413.48
2018-10-03T13:39:45.529Z,101403.88
2018-10-03T13:42:12.674Z,101416.06
2018-10-03T13:44:39.848Z,101418.86
2018-10-03T13:47:06.993Z,101426.17
2018-10-03T13:49:34.109Z,101426.48
2018-10-03T13:52:01.317Z,101422.83
2018-10-03T13:54:28.449Z,101424.08
2018-10-03T13:56:55.634Z,101423.73
2018-10-03T13:59:22.977Z,101426.13
2018-10-03T14:01:50.155Z,101433.05
2018-10-03T14:04:17.253Z,101432.70
2018-10-03T14:06:44.426Z,101442.63
2018-10-03T14:09:11.583Z,101445.66
2018-10-03T14:11:38.707Z,101449.42
2018-10-03T14:14:05.894Z,101464.89
2018-10-03T14:16:33.077Z,101451.47
2018-10-03T14:19:00.221Z,101456.87
2018-10-03T14:21:27.432Z,101465.08
2018-10-03T14:23:54.563Z,101466.72
2018-10-03T14:26:21.792Z,101463.94
2018-10-03T14:28:48.996Z,101465.64
2018-10-03T14:31:16.189Z,101472.34
2018-10-03T14:33:43.349Z,101471.80
2018-10-03T14:36:10.533Z,101469.97
2018-10-03T14:38:37.649Z,101480.09
2018-10-03T14:41:04.763Z,101477.17
2018-10-03T14:43:31.960Z,101475.91
2018-10-03T14:45:59.109Z,101469.42
2018-10-03T14:48:26.355Z,101476.03
2018-10-03T14:50:54.526Z,101490.00
2018-10-03T14:53:21.712Z,101489.25
2018-10-03T14:55:48.841Z,101495.31
2018-10-03T14:58:16.095Z,101495.02
2018-10-03T15:00:43.206Z,101508.23
2018-10-03T15:03:10.408Z,101495.09
2018-10-03T15:05:37.816Z,101510.03
2018-10-03T15:08:04.993Z,101519.73
2018-10-03T15:10:32.125Z,101515.03
2018-10-03T15:13:00.176Z,101521.37
2018-10-03T15:15:27.377Z,101530.97
2018-10-03T15:17:55.210Z,101519.11
2018-10-03T15:20:22.406Z,101528.75
2018-10-03T15:22:49.621Z,101517.28
2018-10-03T15:25:16.785Z,101533.50
2018-10-03T15:27:43.975Z,101538.45
2018-10-03T15:30:11.223Z,101546.95
2018-10-03T15:32:38.444Z,101550.61
2018-10-03T15:35:05.810Z,101542.20
2018-10-03T15:37:32.993Z,101555.85
2018-10-03T15:40:00.130Z,101557.12
2018-10-03T15:42:27.330Z,101558.29
2018-10-03T15:44:54.644Z,101563.64
2018-10-03T15:47:21.765Z,101560.01
2018-10-03T15:49:49.041Z,101567.93
2018-10-03T15:52:16.209Z,101568.80
2018-10-03T15:54:44.185Z,101576.22
2018-10-03T15:57:11.390Z,101578.17
2018-10-03T15:59:39.383Z,101579.58
2018-10-03T16:02:06.788Z,101589.91
2018-10-03T16:04:34.425Z,101582.86
2018-10-03T16:07:01.656Z,101586.37
2018-10-03T16:09:28.787Z,101588.00
2018-10-03T16:11:55.989Z,101592.31
2018-10-03T16:14:23.169Z,101597.45
2018-10-03T16:16:50.429Z,101605.44
2018-10-03T16:19:17.724Z,101610.34
2018-10-03T16:21:44.863Z,101606.03
2018-10-03T16:24:12.200Z,101606.97
2018-10-03T16:26:39.396Z,101608.59
2018-10-03T16:29:06.533Z,101618.58
2018-10-03T16:31:33.659Z,101611.89
2018-10-03T16:34:01.795Z,101624.81
2018-10-03T16:36:28.928Z,101628.02
2018-10-03T16:38:57.105Z,101633.38
2018-10-03T16:41:24.254Z,101641.53
2018-10-03T16:43:51.452Z,101648.28
2018-10-03T16:46:18.586Z,101645.05
2018-10-03T16:48:46.708Z,101643.83
2018-10-03T16:51:13.853Z,101654.88
2018-10-03T16:53:41.093Z,101648.67
2018-10-03T16:56:08.276Z,101653.14
2018-10-03T16:58:35.409Z,101650.54
2018-10-03T17:01:02.532Z,101658.75
2018-10-03T17:03:29.753Z,101661.14
2018-10-03T17:05:56.880Z,101668.15
2018-10-03T17:08:23.996Z,101662.12
2018-10-03T17:10:51.168Z,101670.45
2018-10-03T17:13:18.385Z,101676.98
2018-10-03T17:15:45.618Z,101680.66
2018-10-03T17:18:12.815Z,101676.28
2018-10-03T17:20:40.025Z,101677.06
2018-10-03T17:23:07.206Z,101678.87
2018-10-03T17:25:34.372Z,101674.04
2018-10-03T17:28:01.505Z,101668.80
2018-10-03T17:30:28.623Z,101676.36
2018-10-03T17:32:55.809Z,101692.67
2018-10-03T17:35:23.145Z,101689.54
2018-10-03T17:37:50.527Z,101701.00
2018-10-03T17:40:17.704Z,101707.59
2018-10-03T17:42:44.846Z,101709.41
2018-10-03T17:45:11.976Z,101711.55
2018-10-03T17:47:39.165Z,101714.54
2018-10-03T17:50:06.384Z,101723.81
2018-10-03T17:52:33.600Z,101718.93
2018-10-03T17:55:00.776Z,101720.30
2018-10-03T17:57:28.025Z,101724.33
2018-10-03T17:59:55.240Z,101726.92
2018-10-03T18:02:22.480Z,101741.36
2018-10-03T18:04:49.655Z,101739.17
2018-10-03T18:07:16.750Z,101741.44
2018-10-03T18:09:43.926Z,101739.63
2018-10-03T18:12:11.064Z,101748.40
2018-10-03T18:14:38.195Z,101744.91
2018-10-03T18:17:09.829Z,101750.73
2018-10-03T18:19:37.038Z,101753.72
2018-10-03T18:22:04.623Z,101748.03
2018-10-03T18:24:32.272Z,101760.73
2018-10-03T18:27:02.578Z,101758.48
2018-10-03T18:29:30.316Z,101769.39
2018-10-03T18:31:57.496Z,101768.94
2018-10-03T18:34:24.617Z,101776.47
2018-10-03T18:36:52.123Z,101768.08
2018-10-03T18:39:19.448Z,101772.39
2018-10-03T18:41:46.966Z,101774.16
2018-10-03T18:44:14.068Z,101772.03
2018-10-03T18:46:41.445Z,101779.60
2018-10-03T18:49:08.626Z,101783.88
2018-10-03T18:51:35.732Z,101789.27
2018-10-03T18:54:02.966Z,101792.28
2018-10-03T18:56:30.079Z,101784.08
2018-10-03T18:58:57.708Z,101794.22
2018-10-03T19:01:28.196Z,101803.05
2018-10-03T19:03:59.233Z,101803.92
2018-10-03T19:06:29.746Z,101800.50
2018-10-03T19:08:58.932Z,101800.51
2018-10-03T19:11:26.104Z,101805.77
2018-10-03T19:13:53.826Z,101810.11
2018-10-03T19:16:21.164Z,101807.92
2018-10-03T19:18:48.860Z,101807.13
2018-10-03T19:21:16.225Z,101812.39
2018-10-03T19:23:43.362Z,101822.48
2018-10-03T19:26:10.820Z,101825.06
2018-10-03T19:28:38.069Z,101825.58
2018-10-03T19:31:05.173Z,101827.80
2018-10-03T19:33:32.285Z,101837.00
2018-10-03T19:35:59.445Z,101837.91
2018-10-03T19:38:26.676Z,101842.70
2018-10-03T19:42:25.953Z,101848.01
2018-10-03T19:44:53.594Z,101851.94
2018-10-03T19:47:20.815Z,101848.05
2018-10-03T19:49:48.036Z,101849.35
2018-10-03T19:52:15.152Z,101848.47
2018-10-03T19:54:42.303Z,101849.80
2018-10-03T19:57:09.625Z,101852.00
2018-10-03T19:59:36.720Z,101858.58
2018-10-03T20:02:03.861Z,101862.09
2018-10-03T20:04:31.098Z,101867.31
2018-10-03T20:06:58.241Z,101867.77
2018-10-03T20:09:25.474Z,101871.69
2018-10-03T20:11:52.740Z,101874.34
2018-10-03T20:14:20.101Z,101876.92
2018-10-03T20:16:47.213Z,101882.64
2018-10-03T20:19:14.529Z,101883.94
2018-10-03T20:21:41.779Z,101888.76
2018-10-03T20:24:08.880Z,101882.16
2018-10-03T20:26:36.117Z,101883.48
2018-10-03T20:29:03.196Z,101883.89
2018-10-03T20:31:30.329Z,101890.02
2018-10-03T20:33:57.506Z,101891.30
2018-10-03T20:36:24.619Z,101892.16
2018-10-03T20:38:51.782Z,101886.44
2018-10-03T20:41:18.958Z,101886.48
2018-10-03T20:43:46.085Z,101890.86
2018-10-03T20:46:13.196Z,101901.78
2018-10-03T20:48:40.351Z,101904.45
2018-10-03T20:51:07.569Z,101898.27
2018-10-03T20:53:34.696Z,101901.33
2018-10-03T20:56:01.961Z,101903.94
2018-10-03T20:58:29.148Z,101908.28
2018-10-03T21:00:56.301Z,101903.06
2018-10-03T21:03:23.457Z,101910.01
2018-10-03T21:05:50.572Z,101903.87
2018-10-03T21:08:17.697Z,101904.27
2018-10-03T21:10:44.872Z,101909.03
2018-10-03T21:13:11.982Z,101912.08
2018-10-03T21:15:39.080Z,101908.11
2018-10-03T21:18:06.313Z,101912.86
2018-10-03T21:20:33.459Z,101907.66
2018-10-03T21:23:00.553Z,101907.30
2018-10-03T21:25:27.737Z,101906.81
2018-10-03T21:27:54.848Z,101914.28
2018-10-03T21:30:21.964Z,101919.45
2018-10-03T21:32:49.273Z,101922.04
2018-10-03T21:35:16.381Z,101918.08
2018-10-03T21:37:43.541Z,101920.24
2018-10-03T21:40:10.756Z,101918.08
2018-10-03T21:42:37.882Z,101916.74
2018-10-03T21:45:05.359Z,101918.48
2018-10-03T21:47:32.518Z,101913.72
2018-10-03T21:49:59.648Z,101911.07
2018-10-03T21:52:26.760Z,101912.33
2018-10-03T21:54:53.919Z,101911.50
2018-10-03T21:57:21.089Z,101917.30
2018-10-03T21:59:48.212Z,101908.57
2018-10-03T22:02:15.449Z,101912.03
2018-10-03T22:04:42.560Z,101911.98
2018-10-03T22:07:09.720Z,101910.26
2018-10-03T22:09:36.890Z,101911.11
2018-10-03T22:12:04.013Z,101916.01
2018-10-03T22:14:31.132Z,101915.55
2018-10-03T22:16:58.334Z,101916.86
2018-10-03T22:19:25.451Z,101916.07
2018-10-03T22:21:52.593Z,101917.87
2018-10-03T22:24:19.785Z,101921.35
2018-10-03T22:26:46.914Z,101918.34
2018-10-03T22:29:14.034Z,101921.41
2018-10-03T22:31:42.021Z,101914.84
2018-10-03T22:34:09.244Z,101915.30
2018-10-03T22:36:36.360Z,101916.22
2018-10-03T22:39:04.369Z,101911.00
2018-10-03T22:41:31.553Z,101910.16
2018-10-03T22:43:58.724Z,101922.84
2018-10-03T22:46:25.896Z,101911.02
2018-10-03T22:48:53.000Z,101907.97
2018-10-03T22:51:20.122Z,101903.14
2018-10-03T22:53:47.344Z,101915.37
2018-10-03T22:56:14.473Z,101914.55
2018-10-03T22:58:41.621Z,101914.11
2018-10-03T23:01:08.901Z,101908.88
2018-10-03T23:03:36.131Z,101920.22
2018-10-03T23:06:03.256Z,101923.25
2018-10-03T23:08:30.442Z,101923.30
2018-10-03T23:10:57.577Z,101928.56
2018-10-03T23:13:24.717Z,101923.32
2018-10-03T23:15:52.040Z,101912.39
2018-10-03T23:18:19.220Z,101916.72
2018-10-03T23:20:46.336Z,101921.52
2018-10-03T23:23:13.530Z,101926.38
2018-10-03T23:25:40.679Z,101927.69
2018-10-03T23:28:07.804Z,101926.34
2018-10-03T23:30:34.958Z,101931.61
2018-10-03T23:33:02.100Z,101927.23
2018-10-03T23:35:29.310Z,101936.90
2018-10-03T23:37:56.468Z,101941.25
2018-10-03T23:40:23.631Z,101936.42
2018-10-03T23:42:50.836Z,101943.42
2018-10-03T23:45:18.015Z,101941.67
2018-10-03T23:47:45.125Z,101936.84
2018-10-03T23:50:12.244Z,101939.89
2018-10-03T23:52:39.486Z,101941.63
2018-10-03T23:55:06.631Z,101945.12
2018-10-03T23:57:33.791Z,101944.65
